Emslake — V2FL4 — position and weather

sailwx.info

Track history (hours):
 
Tides and Currents Weather Stations Pressure Air Temp Water Temp Dewpoint Dewpoint Depression Visibility Wind Speed Wind Dir Waves Ship Positions

Emslake

Last reported at 2014-Dec-18 13:34 UTC. Time now 2014-Dec-18 14:27 UTC.
Position N 54°32' E 018°49'.

Length 100 m; draft 4.9 m.

Type: Cargo ship. MMSI: 305712000.

Date/timePositionNaut miles runAvg speedWind from/ knotsBaromVisibWave heightAir tempDewpointWater temp
2014-Dec-18 13:34N 54°32' E 018°49'9 8.9
2014-Dec-18 12:32N 54°32' E 018°33'0 0.1
2014-Dec-18 11:32N 54°32' E 018°33'0 0.0
2014-Dec-18 10:32N 54°32' E 018°33'0 0.0
2014-Dec-18 09:32N 54°32' E 018°33'0 0.0
2014-Dec-18 08:32N 54°32' E 018°33'0 0.0
2014-Dec-18 07:32N 54°32' E 018°33'0 0.0
2014-Dec-18 06:32N 54°32' E 018°33'0 0.0
2014-Dec-18 05:32N 54°32' E 018°33'0 0.0
2014-Dec-18 04:32N 54°32' E 018°33'0 0.0
2014-Dec-18 03:32N 54°32' E 018°33'0 0.0
2014-Dec-18 02:32N 54°32' E 018°33'0 0.0
2014-Dec-18 01:32N 54°32' E 018°33'0 0.0
2014-Dec-18 00:32N 54°32' E 018°33'0 0.0
2014-Dec-17 23:32N 54°32' E 018°33'0 0.0
2014-Dec-17 22:32N 54°32' E 018°33'0 0.0
2014-Dec-17 21:32N 54°32' E 018°33'0 0.0
2014-Dec-17 20:32N 54°32' E 018°33'0 0.0
2014-Dec-17 19:32N 54°32' E 018°33'0 0.0
2014-Dec-17 18:32N 54°32' E 018°33'0 0.0
2014-Dec-17 17:32N 54°32' E 018°33'0 0.0
2014-Dec-17 16:32N 54°32' E 018°33'0 0.0
2014-Dec-17 15:32N 54°32' E 018°33'0 0.0
2014-Dec-17 14:32N 54°32' E 018°33'0 0.0
2014-Dec-17 13:32N 54°32' E 018°33'0 0.0
2014-Dec-17 12:32N 54°32' E 018°33'0 0.0
2014-Dec-17 11:32N 54°32' E 018°33'0 0.0
2014-Dec-17 10:32N 54°32' E 018°33'0 0.0
2014-Dec-17 09:32N 54°32' E 018°33'0 0.0
2014-Dec-17 08:32N 54°32' E 018°33'0 0.3
2014-Dec-17 07:33N 54°32' E 018°34'2 1.8
2014-Dec-17 06:33N 54°32' E 018°37'0 0.0
2014-Dec-17 05:33N 54°32' E 018°37'0 0.0
2014-Dec-17 04:33N 54°32' E 018°37'0 0.0
2014-Dec-17 03:33N 54°32' E 018°37'0 0.0
2014-Dec-17 02:33N 54°32' E 018°37'0 0.0
2014-Dec-17 01:33N 54°32' E 018°37'4 3.9
2014-Dec-17 00:34N 54°32' E 018°43'9 8.7
2014-Dec-16 23:34N 54°38' E 018°55'9 9.3
2014-Dec-16 22:34N 54°47' E 019°00'9 9.4
2014-Dec-16 21:33N 54°56' E 019°02'  
Track history (hours):
 
Tides and Currents Weather Stations Pressure Air Temp Water Temp Dewpoint Dewpoint Depression Visibility Wind Speed Wind Dir Waves Ship Positions

Emslake

Last reported at 2014-Dec-18 13:34 UTC. Time now 2014-Dec-18 14:27 UTC.
Position N 54°32' E 018°49'.

Length 100 m; draft 4.9 m.

Type: Cargo ship. MMSI: 305712000.

Date/timePositionNaut miles runAvg speedWind from/ knotsBaromVisibWave heightAir tempDewpointWater temp
2014-Dec-18 13:34N 54°32' E 018°49'9 8.9
2014-Dec-18 12:32N 54°32' E 018°33'0 0.1
2014-Dec-18 11:32N 54°32' E 018°33'0 0.0
2014-Dec-18 10:32N 54°32' E 018°33'0 0.0
2014-Dec-18 09:32N 54°32' E 018°33'0 0.0
2014-Dec-18 08:32N 54°32' E 018°33'0 0.0
2014-Dec-18 07:32N 54°32' E 018°33'0 0.0
2014-Dec-18 06:32N 54°32' E 018°33'0 0.0
2014-Dec-18 05:32N 54°32' E 018°33'0 0.0
2014-Dec-18 04:32N 54°32' E 018°33'0 0.0
2014-Dec-18 03:32N 54°32' E 018°33'0 0.0
2014-Dec-18 02:32N 54°32' E 018°33'0 0.0
2014-Dec-18 01:32N 54°32' E 018°33'0 0.0
2014-Dec-18 00:32N 54°32' E 018°33'0 0.0
2014-Dec-17 23:32N 54°32' E 018°33'0 0.0
2014-Dec-17 22:32N 54°32' E 018°33'0 0.0
2014-Dec-17 21:32N 54°32' E 018°33'0 0.0
2014-Dec-17 20:32N 54°32' E 018°33'0 0.0
2014-Dec-17 19:32N 54°32' E 018°33'0 0.0
2014-Dec-17 18:32N 54°32' E 018°33'0 0.0
2014-Dec-17 17:32N 54°32' E 018°33'0 0.0
2014-Dec-17 16:32N 54°32' E 018°33'0 0.0
2014-Dec-17 15:32N 54°32' E 018°33'0 0.0
2014-Dec-17 14:32N 54°32' E 018°33'0 0.0
2014-Dec-17 13:32N 54°32' E 018°33'0 0.0
2014-Dec-17 12:32N 54°32' E 018°33'0 0.0
2014-Dec-17 11:32N 54°32' E 018°33'0 0.0
2014-Dec-17 10:32N 54°32' E 018°33'0 0.0
2014-Dec-17 09:32N 54°32' E 018°33'0 0.0
2014-Dec-17 08:32N 54°32' E 018°33'0 0.3
2014-Dec-17 07:33N 54°32' E 018°34'2 1.8
2014-Dec-17 06:33N 54°32' E 018°37'0 0.0
2014-Dec-17 05:33N 54°32' E 018°37'0 0.0
2014-Dec-17 04:33N 54°32' E 018°37'0 0.0
2014-Dec-17 03:33N 54°32' E 018°37'0 0.0
2014-Dec-17 02:33N 54°32' E 018°37'0 0.0
2014-Dec-17 01:33N 54°32' E 018°37'4 3.9
2014-Dec-17 00:34N 54°32' E 018°43'9 8.7
2014-Dec-16 23:34N 54°38' E 018°55'9 9.3
2014-Dec-16 22:34N 54°47' E 019°00'9 9.4
2014-Dec-16 21:33N 54°56' E 019°02'  

Dump ship's entire track history